sensor_id;sensor_type;location;lat;lon;timestamp;P1;durP1;ratioP1;P2;durP2;ratioP2
6832;SDS011;3454;42.654;23.378;2022-11-25T00:00:09;3.43;;;2.20;;
6832;SDS011;3454;42.654;23.378;2022-11-25T00:02:35;2.87;;;1.83;;
6832;SDS011;3454;42.654;23.378;2022-11-25T00:05:00;2.63;;;1.60;;
6832;SDS011;3454;42.654;23.378;2022-11-25T00:07:25;2.77;;;1.80;;
6832;SDS011;3454;42.654;23.378;2022-11-25T00:09:51;2.43;;;1.77;;
6832;SDS011;3454;42.654;23.378;2022-11-25T00:12:16;1.83;;;1.73;;
6832;SDS011;3454;42.654;23.378;2022-11-25T00:14:42;2.20;;;1.90;;
6832;SDS011;3454;42.654;23.378;2022-11-25T00:17:07;2.07;;;1.33;;
6832;SDS011;3454;42.654;23.378;2022-11-25T00:19:33;2.30;;;1.60;;
6832;SDS011;3454;42.654;23.378;2022-11-25T00:21:58;3.27;;;1.97;;
6832;SDS011;3454;42.654;23.378;2022-11-25T00:24:23;1.83;;;1.60;;
6832;SDS011;3454;42.654;23.378;2022-11-25T00:26:49;1.93;;;1.73;;
6832;SDS011;3454;42.654;23.378;2022-11-25T00:29:14;4.30;;;1.93;;
6832;SDS011;3454;42.654;23.378;2022-11-25T00:31:40;2.03;;;1.83;;
6832;SDS011;3454;42.654;23.378;2022-11-25T00:34:06;2.10;;;1.53;;
6832;SDS011;3454;42.654;23.378;2022-11-25T00:36:35;1.80;;;1.70;;
6832;SDS011;3454;42.654;23.378;2022-11-25T00:39:19;2.47;;;2.13;;
6832;SDS011;3454;42.654;23.378;2022-11-25T00:41:48;6.13;;;2.10;;
6832;SDS011;3454;42.654;23.378;2022-11-25T00:44:32;4.07;;;2.30;;
6832;SDS011;3454;42.654;23.378;2022-11-25T00:47:05;3.30;;;2.90;;
6832;SDS011;3454;42.654;23.378;2022-11-25T00:49:38;4.13;;;2.37;;
6832;SDS011;3454;42.654;23.378;2022-11-25T00:52:05;2.63;;;2.30;;
6832;SDS011;3454;42.654;23.378;2022-11-25T00:54:31;3.53;;;2.47;;
6832;SDS011;3454;42.654;23.378;2022-11-25T00:56:56;3.87;;;2.33;;
6832;SDS011;3454;42.654;23.378;2022-11-25T00:59:22;2.80;;;2.50;;
6832;SDS011;3454;42.654;23.378;2022-11-25T01:01:48;3.40;;;2.60;;
6832;SDS011;3454;42.654;23.378;2022-11-25T01:04:14;6.83;;;2.40;;
6832;SDS011;3454;42.654;23.378;2022-11-25T01:06:40;2.27;;;2.00;;
6832;SDS011;3454;42.654;23.378;2022-11-25T01:09:06;5.43;;;2.40;;
6832;SDS011;3454;42.654;23.378;2022-11-25T01:11:33;2.70;;;2.00;;
6832;SDS011;3454;42.654;23.378;2022-11-25T01:13:59;5.43;;;2.40;;
6832;SDS011;3454;42.654;23.378;2022-11-25T01:16:24;5.20;;;2.67;;
6832;SDS011;3454;42.654;23.378;2022-11-25T01:18:50;2.30;;;2.00;;
6832;SDS011;3454;42.654;23.378;2022-11-25T01:21:21;4.10;;;2.50;;
6832;SDS011;3454;42.654;23.378;2022-11-25T01:23:48;3.23;;;2.33;;
6832;SDS011;3454;42.654;23.378;2022-11-25T01:26:16;3.43;;;2.03;;
6832;SDS011;3454;42.654;23.378;2022-11-25T01:28:43;3.50;;;2.30;;
6832;SDS011;3454;42.654;23.378;2022-11-25T01:31:11;2.50;;;2.13;;
6832;SDS011;3454;42.654;23.378;2022-11-25T01:33:39;4.03;;;2.87;;
6832;SDS011;3454;42.654;23.378;2022-11-25T01:36:14;2.10;;;1.80;;
6832;SDS011;3454;42.654;23.378;2022-11-25T01:38:42;2.80;;;1.90;;
6832;SDS011;3454;42.654;23.378;2022-11-25T01:41:10;2.40;;;2.03;;
6832;SDS011;3454;42.654;23.378;2022-11-25T01:43:37;2.97;;;2.00;;
6832;SDS011;3454;42.654;23.378;2022-11-25T01:46:08;3.80;;;2.10;;
6832;SDS011;3454;42.654;23.378;2022-11-25T01:48:53;1.93;;;1.60;;
6832;SDS011;3454;42.654;23.378;2022-11-25T01:54:17;2.37;;;2.00;;
6832;SDS011;3454;42.654;23.378;2022-11-25T01:56:54;2.13;;;1.90;;
6832;SDS011;3454;42.654;23.378;2022-11-25T01:59:25;1.53;;;1.40;;
6832;SDS011;3454;42.654;23.378;2022-11-25T02:01:51;1.80;;;1.60;;
6832;SDS011;3454;42.654;23.378;2022-11-25T02:04:17;1.63;;;1.43;;
6832;SDS011;3454;42.654;23.378;2022-11-25T02:06:52;2.63;;;2.00;;
6832;SDS011;3454;42.654;23.378;2022-11-25T02:09:23;1.70;;;1.50;;
6832;SDS011;3454;42.654;23.378;2022-11-25T02:11:49;1.87;;;1.50;;
6832;SDS011;3454;42.654;23.378;2022-11-25T02:14:15;2.70;;;1.87;;
6832;SDS011;3454;42.654;23.378;2022-11-25T02:16:43;2.17;;;1.30;;
6832;SDS011;3454;42.654;23.378;2022-11-25T02:19:12;1.50;;;1.40;;
6832;SDS011;3454;42.654;23.378;2022-11-25T02:21:46;1.30;;;1.20;;
6832;SDS011;3454;42.654;23.378;2022-11-25T02:24:30;2.20;;;1.33;;
6832;SDS011;3454;42.654;23.378;2022-11-25T02:27:03;1.53;;;1.43;;
6832;SDS011;3454;42.654;23.378;2022-11-25T02:29:29;1.33;;;1.23;;
6832;SDS011;3454;42.654;23.378;2022-11-25T02:31:56;1.83;;;1.33;;
6832;SDS011;3454;42.654;23.378;2022-11-25T02:34:22;1.70;;;1.27;;
6832;SDS011;3454;42.654;23.378;2022-11-25T02:36:47;1.30;;;1.13;;
6832;SDS011;3454;42.654;23.378;2022-11-25T02:39:13;1.10;;;1.00;;
6832;SDS011;3454;42.654;23.378;2022-11-25T02:41:40;1.63;;;1.23;;
6832;SDS011;3454;42.654;23.378;2022-11-25T02:44:10;1.63;;;1.53;;
6832;SDS011;3454;42.654;23.378;2022-11-25T02:46:35;1.30;;;1.20;;
6832;SDS011;3454;42.654;23.378;2022-11-25T02:49:01;2.63;;;1.60;;
6832;SDS011;3454;42.654;23.378;2022-11-25T02:51:28;2.37;;;1.40;;
6832;SDS011;3454;42.654;23.378;2022-11-25T02:53:54;2.43;;;1.30;;
6832;SDS011;3454;42.654;23.378;2022-11-25T02:56:24;1.83;;;1.20;;
6832;SDS011;3454;42.654;23.378;2022-11-25T02:58:52;2.97;;;1.40;;
6832;SDS011;3454;42.654;23.378;2022-11-25T03:01:17;2.40;;;1.63;;
6832;SDS011;3454;42.654;23.378;2022-11-25T03:03:43;1.50;;;1.40;;
6832;SDS011;3454;42.654;23.378;2022-11-25T03:06:09;1.73;;;1.53;;
6832;SDS011;3454;42.654;23.378;2022-11-25T03:08:34;1.40;;;1.30;;
6832;SDS011;3454;42.654;23.378;2022-11-25T03:11:00;2.53;;;1.93;;
6832;SDS011;3454;42.654;23.378;2022-11-25T03:13:26;3.40;;;1.60;;
6832;SDS011;3454;42.654;23.378;2022-11-25T03:15:52;2.27;;;1.60;;
6832;SDS011;3454;42.654;23.378;2022-11-25T03:18:18;1.83;;;1.70;;
6832;SDS011;3454;42.654;23.378;2022-11-25T03:20:43;2.00;;;1.80;;
6832;SDS011;3454;42.654;23.378;2022-11-25T03:23:08;4.07;;;1.50;;
6832;SDS011;3454;42.654;23.378;2022-11-25T03:25:34;2.47;;;1.70;;
6832;SDS011;3454;42.654;23.378;2022-11-25T03:28:00;1.80;;;1.30;;
6832;SDS011;3454;42.654;23.378;2022-11-25T03:30:26;2.10;;;1.37;;
6832;SDS011;3454;42.654;23.378;2022-11-25T03:32:52;2.57;;;1.47;;
6832;SDS011;3454;42.654;23.378;2022-11-25T03:35:18;1.57;;;1.47;;
6832;SDS011;3454;42.654;23.378;2022-11-25T03:37:44;2.77;;;1.97;;
6832;SDS011;3454;42.654;23.378;2022-11-25T03:40:10;2.70;;;1.83;;
6832;SDS011;3454;42.654;23.378;2022-11-25T03:42:37;3.33;;;2.20;;
6832;SDS011;3454;42.654;23.378;2022-11-25T03:45:03;3.90;;;1.87;;
6832;SDS011;3454;42.654;23.378;2022-11-25T03:47:29;3.03;;;1.57;;
6832;SDS011;3454;42.654;23.378;2022-11-25T03:49:55;2.10;;;1.73;;
6832;SDS011;3454;42.654;23.378;2022-11-25T03:52:20;2.37;;;2.17;;
6832;SDS011;3454;42.654;23.378;2022-11-25T03:54:46;2.97;;;2.13;;
6832;SDS011;3454;42.654;23.378;2022-11-25T03:57:11;2.40;;;1.70;;
6832;SDS011;3454;42.654;23.378;2022-11-25T03:59:37;3.60;;;2.10;;
6832;SDS011;3454;42.654;23.378;2022-11-25T04:02:02;1.83;;;1.63;;
6832;SDS011;3454;42.654;23.378;2022-11-25T04:04:28;2.73;;;1.80;;
6832;SDS011;3454;42.654;23.378;2022-11-25T04:06:53;2.43;;;1.80;;
6832;SDS011;3454;42.654;23.378;2022-11-25T04:09:18;2.03;;;1.80;;
6832;SDS011;3454;42.654;23.378;2022-11-25T04:11:44;1.63;;;1.53;;
6832;SDS011;3454;42.654;23.378;2022-11-25T04:14:28;2.87;;;1.53;;
6832;SDS011;3454;42.654;23.378;2022-11-25T04:16:54;1.83;;;1.60;;
6832;SDS011;3454;42.654;23.378;2022-11-25T04:19:20;2.10;;;1.77;;
6832;SDS011;3454;42.654;23.378;2022-11-25T04:21:45;1.40;;;1.30;;
6832;SDS011;3454;42.654;23.378;2022-11-25T04:24:10;4.17;;;1.30;;
6832;SDS011;3454;42.654;23.378;2022-11-25T04:26:36;3.53;;;1.40;;
6832;SDS011;3454;42.654;23.378;2022-11-25T04:31:45;1.50;;;1.30;;
6832;SDS011;3454;42.654;23.378;2022-11-25T04:34:11;1.17;;;1.10;;
6832;SDS011;3454;42.654;23.378;2022-11-25T04:36:36;2.30;;;1.67;;
6832;SDS011;3454;42.654;23.378;2022-11-25T04:39:02;1.47;;;1.37;;
6832;SDS011;3454;42.654;23.378;2022-11-25T04:41:28;1.57;;;1.47;;
6832;SDS011;3454;42.654;23.378;2022-11-25T04:43:53;1.53;;;1.33;;
6832;SDS011;3454;42.654;23.378;2022-11-25T04:46:20;1.50;;;1.40;;
6832;SDS011;3454;42.654;23.378;2022-11-25T04:48:48;1.43;;;1.33;;
6832;SDS011;3454;42.654;23.378;2022-11-25T04:51:13;1.97;;;1.60;;
6832;SDS011;3454;42.654;23.378;2022-11-25T04:53:38;2.17;;;1.50;;
6832;SDS011;3454;42.654;23.378;2022-11-25T04:56:04;1.50;;;1.40;;
6832;SDS011;3454;42.654;23.378;2022-11-25T04:58:30;1.43;;;1.33;;
6832;SDS011;3454;42.654;23.378;2022-11-25T05:01:14;1.70;;;1.60;;
6832;SDS011;3454;42.654;23.378;2022-11-25T05:03:39;1.27;;;1.10;;
6832;SDS011;3454;42.654;23.378;2022-11-25T05:06:08;2.03;;;1.70;;
6832;SDS011;3454;42.654;23.378;2022-11-25T05:08:34;1.70;;;1.60;;
6832;SDS011;3454;42.654;23.378;2022-11-25T05:10:59;1.73;;;1.43;;
6832;SDS011;3454;42.654;23.378;2022-11-25T05:13:25;2.03;;;1.83;;
6832;SDS011;3454;42.654;23.378;2022-11-25T05:15:50;2.10;;;1.90;;
6832;SDS011;3454;42.654;23.378;2022-11-25T05:18:16;3.97;;;1.27;;
6832;SDS011;3454;42.654;23.378;2022-11-25T05:20:42;2.57;;;1.27;;
6832;SDS011;3454;42.654;23.378;2022-11-25T05:23:08;1.30;;;1.20;;
6832;SDS011;3454;42.654;23.378;2022-11-25T05:25:33;1.53;;;1.43;;
6832;SDS011;3454;42.654;23.378;2022-11-25T05:27:59;1.57;;;1.23;;
6832;SDS011;3454;42.654;23.378;2022-11-25T05:30:25;1.60;;;1.50;;
6832;SDS011;3454;42.654;23.378;2022-11-25T05:32:51;1.57;;;1.30;;
6832;SDS011;3454;42.654;23.378;2022-11-25T05:35:17;3.03;;;1.40;;
6832;SDS011;3454;42.654;23.378;2022-11-25T05:37:43;1.27;;;1.27;;
6832;SDS011;3454;42.654;23.378;2022-11-25T05:40:09;2.17;;;1.80;;
6832;SDS011;3454;42.654;23.378;2022-11-25T05:42:34;1.30;;;1.20;;
6832;SDS011;3454;42.654;23.378;2022-11-25T05:44:59;2.40;;;1.37;;
6832;SDS011;3454;42.654;23.378;2022-11-25T05:47:26;1.33;;;1.20;;
6832;SDS011;3454;42.654;23.378;2022-11-25T05:49:51;1.50;;;1.30;;
6832;SDS011;3454;42.654;23.378;2022-11-25T05:52:17;1.53;;;1.40;;
6832;SDS011;3454;42.654;23.378;2022-11-25T05:54:42;1.10;;;1.00;;
6832;SDS011;3454;42.654;23.378;2022-11-25T05:57:08;6.53;;;2.17;;
6832;SDS011;3454;42.654;23.378;2022-11-25T05:59:33;10.23;;;1.97;;
6832;SDS011;3454;42.654;23.378;2022-11-25T06:01:59;1.60;;;1.40;;
6832;SDS011;3454;42.654;23.378;2022-11-25T06:04:24;3.90;;;2.23;;
6832;SDS011;3454;42.654;23.378;2022-11-25T06:06:50;1.73;;;1.33;;
6832;SDS011;3454;42.654;23.378;2022-11-25T06:09:15;1.43;;;1.33;;
6832;SDS011;3454;42.654;23.378;2022-11-25T06:11:40;1.40;;;1.10;;
6832;SDS011;3454;42.654;23.378;2022-11-25T06:14:06;1.50;;;1.40;;
6832;SDS011;3454;42.654;23.378;2022-11-25T06:16:39;1.37;;;1.27;;
6832;SDS011;3454;42.654;23.378;2022-11-25T06:19:05;2.67;;;1.87;;
6832;SDS011;3454;42.654;23.378;2022-11-25T06:21:31;1.43;;;1.33;;
6832;SDS011;3454;42.654;23.378;2022-11-25T06:23:57;2.90;;;2.03;;
6832;SDS011;3454;42.654;23.378;2022-11-25T06:26:22;1.70;;;1.50;;
6832;SDS011;3454;42.654;23.378;2022-11-25T06:28:48;3.47;;;2.27;;
6832;SDS011;3454;42.654;23.378;2022-11-25T06:31:18;2.80;;;1.70;;
6832;SDS011;3454;42.654;23.378;2022-11-25T06:33:46;1.97;;;1.50;;
6832;SDS011;3454;42.654;23.378;2022-11-25T06:36:12;2.70;;;1.47;;
6832;SDS011;3454;42.654;23.378;2022-11-25T06:38:44;1.93;;;1.30;;
6832;SDS011;3454;42.654;23.378;2022-11-25T06:41:18;2.53;;;1.87;;
6832;SDS011;3454;42.654;23.378;2022-11-25T06:43:44;2.03;;;1.57;;
6832;SDS011;3454;42.654;23.378;2022-11-25T06:46:11;2.27;;;1.80;;
6832;SDS011;3454;42.654;23.378;2022-11-25T06:48:40;2.20;;;1.87;;
6832;SDS011;3454;42.654;23.378;2022-11-25T06:51:07;3.53;;;1.63;;
6832;SDS011;3454;42.654;23.378;2022-11-25T06:53:35;1.80;;;1.70;;
6832;SDS011;3454;42.654;23.378;2022-11-25T06:58:46;2.70;;;2.07;;
6832;SDS011;3454;42.654;23.378;2022-11-25T07:01:14;3.57;;;2.37;;
6832;SDS011;3454;42.654;23.378;2022-11-25T07:03:48;2.10;;;1.90;;
6832;SDS011;3454;42.654;23.378;2022-11-25T07:06:15;2.10;;;1.90;;
6832;SDS011;3454;42.654;23.378;2022-11-25T07:08:42;2.77;;;2.37;;
6832;SDS011;3454;42.654;23.378;2022-11-25T07:11:13;2.00;;;1.73;;
6832;SDS011;3454;42.654;23.378;2022-11-25T07:13:41;3.00;;;1.90;;
6832;SDS011;3454;42.654;23.378;2022-11-25T07:16:07;2.70;;;2.10;;
6832;SDS011;3454;42.654;23.378;2022-11-25T07:18:35;2.70;;;2.20;;
6832;SDS011;3454;42.654;23.378;2022-11-25T07:23:28;2.43;;;1.90;;
6832;SDS011;3454;42.654;23.378;2022-11-25T07:25:53;2.87;;;2.23;;
6832;SDS011;3454;42.654;23.378;2022-11-25T07:28:19;1.80;;;1.70;;
6832;SDS011;3454;42.654;23.378;2022-11-25T07:30:44;2.33;;;1.97;;
6832;SDS011;3454;42.654;23.378;2022-11-25T07:33:09;3.33;;;2.33;;
6832;SDS011;3454;42.654;23.378;2022-11-25T07:35:35;1.87;;;1.67;;
6832;SDS011;3454;42.654;23.378;2022-11-25T07:38:00;3.00;;;2.67;;
6832;SDS011;3454;42.654;23.378;2022-11-25T07:40:26;6.23;;;2.40;;
6832;SDS011;3454;42.654;23.378;2022-11-25T07:42:51;3.00;;;2.40;;
6832;SDS011;3454;42.654;23.378;2022-11-25T07:45:16;2.83;;;2.13;;
6832;SDS011;3454;42.654;23.378;2022-11-25T07:47:42;2.87;;;2.43;;
6832;SDS011;3454;42.654;23.378;2022-11-25T07:50:07;3.30;;;2.40;;
6832;SDS011;3454;42.654;23.378;2022-11-25T07:52:33;3.23;;;2.03;;
6832;SDS011;3454;42.654;23.378;2022-11-25T07:55:01;3.93;;;2.60;;
6832;SDS011;3454;42.654;23.378;2022-11-25T07:57:27;4.03;;;2.20;;
6832;SDS011;3454;42.654;23.378;2022-11-25T07:59:53;3.17;;;2.30;;
6832;SDS011;3454;42.654;23.378;2022-11-25T08:02:18;3.53;;;2.57;;
6832;SDS011;3454;42.654;23.378;2022-11-25T08:04:43;4.97;;;2.40;;
6832;SDS011;3454;42.654;23.378;2022-11-25T08:07:09;2.23;;;2.03;;
6832;SDS011;3454;42.654;23.378;2022-11-25T08:09:34;2.30;;;2.10;;
6832;SDS011;3454;42.654;23.378;2022-11-25T08:12:00;4.97;;;2.40;;
6832;SDS011;3454;42.654;23.378;2022-11-25T08:14:25;3.37;;;2.70;;
6832;SDS011;3454;42.654;23.378;2022-11-25T08:16:50;3.13;;;2.40;;
6832;SDS011;3454;42.654;23.378;2022-11-25T08:19:16;3.07;;;2.30;;
6832;SDS011;3454;42.654;23.378;2022-11-25T08:21:42;1.93;;;1.70;;
6832;SDS011;3454;42.654;23.378;2022-11-25T08:24:18;2.67;;;2.43;;
6832;SDS011;3454;42.654;23.378;2022-11-25T08:26:45;3.27;;;2.37;;
6832;SDS011;3454;42.654;23.378;2022-11-25T08:29:14;3.17;;;2.23;;
6832;SDS011;3454;42.654;23.378;2022-11-25T08:31:41;2.30;;;1.90;;
6832;SDS011;3454;42.654;23.378;2022-11-25T08:34:07;2.20;;;1.80;;
6832;SDS011;3454;42.654;23.378;2022-11-25T08:36:33;2.67;;;1.97;;
6832;SDS011;3454;42.654;23.378;2022-11-25T08:39:00;2.70;;;2.23;;
6832;SDS011;3454;42.654;23.378;2022-11-25T08:41:32;4.50;;;2.47;;
6832;SDS011;3454;42.654;23.378;2022-11-25T08:44:00;3.93;;;2.90;;
6832;SDS011;3454;42.654;23.378;2022-11-25T08:46:28;3.40;;;2.50;;
6832;SDS011;3454;42.654;23.378;2022-11-25T08:48:57;2.93;;;2.47;;
6832;SDS011;3454;42.654;23.378;2022-11-25T08:51:24;3.13;;;2.57;;
6832;SDS011;3454;42.654;23.378;2022-11-25T08:53:52;3.17;;;2.50;;
6832;SDS011;3454;42.654;23.378;2022-11-25T08:56:18;2.40;;;2.20;;
6832;SDS011;3454;42.654;23.378;2022-11-25T08:58:45;3.17;;;2.10;;
6832;SDS011;3454;42.654;23.378;2022-11-25T09:01:11;2.87;;;2.23;;
6832;SDS011;3454;42.654;23.378;2022-11-25T09:03:38;3.90;;;2.70;;
6832;SDS011;3454;42.654;23.378;2022-11-25T09:06:06;5.43;;;2.87;;
6832;SDS011;3454;42.654;23.378;2022-11-25T09:08:33;2.73;;;2.43;;
6832;SDS011;3454;42.654;23.378;2022-11-25T09:10:59;3.20;;;2.67;;
6832;SDS011;3454;42.654;23.378;2022-11-25T09:13:26;7.40;;;3.17;;
6832;SDS011;3454;42.654;23.378;2022-11-25T09:15:51;4.03;;;2.80;;
6832;SDS011;3454;42.654;23.378;2022-11-25T09:18:17;5.10;;;3.00;;
6832;SDS011;3454;42.654;23.378;2022-11-25T09:20:45;4.13;;;3.13;;
6832;SDS011;3454;42.654;23.378;2022-11-25T09:23:11;6.30;;;2.87;;
6832;SDS011;3454;42.654;23.378;2022-11-25T09:25:36;3.70;;;2.83;;
6832;SDS011;3454;42.654;23.378;2022-11-25T09:28:03;3.67;;;2.10;;
6832;SDS011;3454;42.654;23.378;2022-11-25T09:30:28;4.50;;;2.07;;
6832;SDS011;3454;42.654;23.378;2022-11-25T09:32:54;3.70;;;2.20;;
6832;SDS011;3454;42.654;23.378;2022-11-25T09:35:20;3.40;;;2.60;;
6832;SDS011;3454;42.654;23.378;2022-11-25T09:37:47;3.17;;;2.87;;
6832;SDS011;3454;42.654;23.378;2022-11-25T09:40:17;3.43;;;2.50;;
6832;SDS011;3454;42.654;23.378;2022-11-25T09:42:49;3.27;;;2.97;;
6832;SDS011;3454;42.654;23.378;2022-11-25T09:45:49;3.73;;;2.53;;
6832;SDS011;3454;42.654;23.378;2022-11-25T09:48:47;3.27;;;2.70;;
6832;SDS011;3454;42.654;23.378;2022-11-25T09:52:28;3.53;;;2.90;;
6832;SDS011;3454;42.654;23.378;2022-11-25T10:00:15;4.00;;;2.10;;
6832;SDS011;3454;42.654;23.378;2022-11-25T10:06:03;4.50;;;3.07;;
6832;SDS011;3454;42.654;23.378;2022-11-25T10:08:39;4.07;;;2.37;;
6832;SDS011;3454;42.654;23.378;2022-11-25T10:16:22;3.27;;;2.70;;
6832;SDS011;3454;42.654;23.378;2022-11-25T10:18:55;2.60;;;2.10;;
6832;SDS011;3454;42.654;23.378;2022-11-25T10:21:24;4.73;;;2.20;;
6832;SDS011;3454;42.654;23.378;2022-11-25T10:23:51;3.20;;;2.27;;
6832;SDS011;3454;42.654;23.378;2022-11-25T10:26:16;3.13;;;2.30;;
6832;SDS011;3454;42.654;23.378;2022-11-25T10:28:59;5.53;;;2.53;;
6832;SDS011;3454;42.654;23.378;2022-11-25T10:31:40;4.10;;;2.50;;
6832;SDS011;3454;42.654;23.378;2022-11-25T10:37:03;6.93;;;1.80;;
6832;SDS011;3454;42.654;23.378;2022-11-25T10:39:34;3.33;;;2.33;;
6832;SDS011;3454;42.654;23.378;2022-11-25T10:44:36;3.00;;;2.60;;
6832;SDS011;3454;42.654;23.378;2022-11-25T10:52:32;4.63;;;1.83;;
6832;SDS011;3454;42.654;23.378;2022-11-25T10:55:09;1.63;;;1.53;;
6832;SDS011;3454;42.654;23.378;2022-11-25T10:57:45;2.13;;;1.30;;
6832;SDS011;3454;42.654;23.378;2022-11-25T11:02:50;4.93;;;1.63;;
6832;SDS011;3454;42.654;23.378;2022-11-25T11:08:06;2.37;;;2.03;;
6832;SDS011;3454;42.654;23.378;2022-11-25T11:10:40;1.60;;;1.50;;
6832;SDS011;3454;42.654;23.378;2022-11-25T11:13:17;3.03;;;1.90;;
6832;SDS011;3454;42.654;23.378;2022-11-25T11:15:46;3.97;;;2.07;;
6832;SDS011;3454;42.654;23.378;2022-11-25T11:18:57;2.83;;;2.00;;
6832;SDS011;3454;42.654;23.378;2022-11-25T11:21:00;2.63;;;2.00;;
6832;SDS011;3454;42.654;23.378;2022-11-25T11:23:27;3.53;;;2.33;;
6832;SDS011;3454;42.654;23.378;2022-11-25T11:25:55;4.13;;;2.20;;
6832;SDS011;3454;42.654;23.378;2022-11-25T11:28:28;3.77;;;2.67;;
6832;SDS011;3454;42.654;23.378;2022-11-25T11:31:03;5.07;;;2.30;;
6832;SDS011;3454;42.654;23.378;2022-11-25T11:36:22;2.30;;;2.10;;
6832;SDS011;3454;42.654;23.378;2022-11-25T12:06:30;3.53;;;2.07;;
6832;SDS011;3454;42.654;23.378;2022-11-25T12:09:01;2.17;;;1.97;;
6832;SDS011;3454;42.654;23.378;2022-11-25T12:11:34;5.43;;;2.30;;
6832;SDS011;3454;42.654;23.378;2022-11-25T12:14:05;4.73;;;2.30;;
6832;SDS011;3454;42.654;23.378;2022-11-25T12:16:56;2.40;;;2.20;;
6832;SDS011;3454;42.654;23.378;2022-11-25T12:25:03;4.97;;;2.57;;
6832;SDS011;3454;42.654;23.378;2022-11-25T12:27:46;5.77;;;2.93;;
6832;SDS011;3454;42.654;23.378;2022-11-25T12:30:19;4.70;;;2.50;;
6832;SDS011;3454;42.654;23.378;2022-11-25T12:35:30;2.63;;;2.40;;
6832;SDS011;3454;42.654;23.378;2022-11-25T12:38:11;3.00;;;2.70;;
6832;SDS011;3454;42.654;23.378;2022-11-25T12:46:15;3.50;;;3.10;;
6832;SDS011;3454;42.654;23.378;2022-11-25T12:48:45;4.03;;;2.80;;
6832;SDS011;3454;42.654;23.378;2022-11-25T12:56:37;3.10;;;2.40;;
6832;SDS011;3454;42.654;23.378;2022-11-25T13:04:57;3.00;;;2.70;;
6832;SDS011;3454;42.654;23.378;2022-11-25T13:16:13;3.37;;;2.40;;
6832;SDS011;3454;42.654;23.378;2022-11-25T13:18:40;3.30;;;3.00;;
6832;SDS011;3454;42.654;23.378;2022-11-25T13:21:08;3.40;;;2.83;;
6832;SDS011;3454;42.654;23.378;2022-11-25T13:23:49;5.13;;;2.77;;
6832;SDS011;3454;42.654;23.378;2022-11-25T13:28:54;4.77;;;2.80;;
6832;SDS011;3454;42.654;23.378;2022-11-25T13:31:21;3.23;;;2.90;;
6832;SDS011;3454;42.654;23.378;2022-11-25T13:43:59;2.83;;;2.53;;
6832;SDS011;3454;42.654;23.378;2022-11-25T13:46:41;7.40;;;4.63;;
6832;SDS011;3454;42.654;23.378;2022-11-25T13:49:22;4.80;;;2.90;;
6832;SDS011;3454;42.654;23.378;2022-11-25T13:55:20;5.03;;;3.23;;
6832;SDS011;3454;42.654;23.378;2022-11-25T13:57:45;4.13;;;3.23;;
6832;SDS011;3454;42.654;23.378;2022-11-25T14:02:39;4.70;;;3.27;;
6832;SDS011;3454;42.654;23.378;2022-11-25T14:24:36;4.23;;;3.67;;
6832;SDS011;3454;42.654;23.378;2022-11-25T14:27:10;5.17;;;3.93;;
6832;SDS011;3454;42.654;23.378;2022-11-25T14:29:41;7.20;;;4.77;;
6832;SDS011;3454;42.654;23.378;2022-11-25T14:32:18;5.60;;;4.40;;
6832;SDS011;3454;42.654;23.378;2022-11-25T14:34:51;6.00;;;4.67;;
6832;SDS011;3454;42.654;23.378;2022-11-25T14:37:28;5.93;;;4.10;;
6832;SDS011;3454;42.654;23.378;2022-11-25T14:42:43;7.70;;;4.57;;
6832;SDS011;3454;42.654;23.378;2022-11-25T14:45:25;10.60;;;5.10;;
6832;SDS011;3454;42.654;23.378;2022-11-25T14:47:53;7.30;;;4.43;;
6832;SDS011;3454;42.654;23.378;2022-11-25T14:50:19;7.90;;;4.97;;
6832;SDS011;3454;42.654;23.378;2022-11-25T14:52:44;11.33;;;4.87;;
6832;SDS011;3454;42.654;23.378;2022-11-25T14:55:35;6.17;;;4.60;;
6832;SDS011;3454;42.654;23.378;2022-11-25T14:58:00;14.97;;;7.23;;
6832;SDS011;3454;42.654;23.378;2022-11-25T15:00:27;7.33;;;5.40;;
6832;SDS011;3454;42.654;23.378;2022-11-25T15:02:57;7.37;;;4.63;;
6832;SDS011;3454;42.654;23.378;2022-11-25T15:05:37;7.40;;;5.20;;
6832;SDS011;3454;42.654;23.378;2022-11-25T15:16:04;6.67;;;4.93;;
6832;SDS011;3454;42.654;23.378;2022-11-25T15:18:31;6.13;;;4.50;;
6832;SDS011;3454;42.654;23.378;2022-11-25T15:20:59;5.77;;;4.30;;
6832;SDS011;3454;42.654;23.378;2022-11-25T15:23:28;7.10;;;4.50;;
6832;SDS011;3454;42.654;23.378;2022-11-25T15:25:58;7.00;;;4.47;;
6832;SDS011;3454;42.654;23.378;2022-11-25T15:28:25;5.97;;;4.10;;
6832;SDS011;3454;42.654;23.378;2022-11-25T15:30:57;5.53;;;3.80;;
6832;SDS011;3454;42.654;23.378;2022-11-25T15:33:25;5.53;;;4.30;;
6832;SDS011;3454;42.654;23.378;2022-11-25T15:35:52;5.20;;;3.90;;
6832;SDS011;3454;42.654;23.378;2022-11-25T15:41:05;11.83;;;3.90;;
6832;SDS011;3454;42.654;23.378;2022-11-25T15:43:39;6.57;;;3.83;;
6832;SDS011;3454;42.654;23.378;2022-11-25T15:46:10;8.87;;;3.90;;
6832;SDS011;3454;42.654;23.378;2022-11-25T15:48:37;6.07;;;4.07;;
6832;SDS011;3454;42.654;23.378;2022-11-25T15:54:03;5.53;;;3.50;;
6832;SDS011;3454;42.654;23.378;2022-11-25T15:56:31;4.00;;;3.20;;
6832;SDS011;3454;42.654;23.378;2022-11-25T15:58:59;5.47;;;3.53;;
6832;SDS011;3454;42.654;23.378;2022-11-25T16:01:26;5.37;;;3.50;;
6832;SDS011;3454;42.654;23.378;2022-11-25T16:03:52;7.23;;;3.53;;
6832;SDS011;3454;42.654;23.378;2022-11-25T16:06:34;5.87;;;3.57;;
6832;SDS011;3454;42.654;23.378;2022-11-25T16:09:00;3.70;;;2.97;;
6832;SDS011;3454;42.654;23.378;2022-11-25T16:11:28;3.80;;;3.40;;
6832;SDS011;3454;42.654;23.378;2022-11-25T16:14:16;3.23;;;2.90;;
6832;SDS011;3454;42.654;23.378;2022-11-25T16:16:48;8.27;;;2.70;;
6832;SDS011;3454;42.654;23.378;2022-11-25T16:19:15;4.20;;;2.50;;
6832;SDS011;3454;42.654;23.378;2022-11-25T16:21:49;2.83;;;2.40;;
6832;SDS011;3454;42.654;23.378;2022-11-25T16:24:36;4.67;;;3.30;;
6832;SDS011;3454;42.654;23.378;2022-11-25T16:27:11;3.47;;;2.60;;
6832;SDS011;3454;42.654;23.378;2022-11-25T16:29:48;6.13;;;2.50;;
6832;SDS011;3454;42.654;23.378;2022-11-25T16:32:17;4.03;;;2.33;;
6832;SDS011;3454;42.654;23.378;2022-11-25T16:34:44;3.83;;;2.63;;
6832;SDS011;3454;42.654;23.378;2022-11-25T16:37:10;4.77;;;2.50;;
6832;SDS011;3454;42.654;23.378;2022-11-25T16:39:36;3.10;;;2.50;;
6832;SDS011;3454;42.654;23.378;2022-11-25T16:42:02;3.70;;;2.27;;
6832;SDS011;3454;42.654;23.378;2022-11-25T16:44:30;3.57;;;1.53;;
6832;SDS011;3454;42.654;23.378;2022-11-25T16:46:57;4.60;;;2.10;;
6832;SDS011;3454;42.654;23.378;2022-11-25T16:49:22;2.93;;;2.10;;
6832;SDS011;3454;42.654;23.378;2022-11-25T16:51:48;5.13;;;2.70;;
6832;SDS011;3454;42.654;23.378;2022-11-25T16:54:19;2.33;;;2.13;;
6832;SDS011;3454;42.654;23.378;2022-11-25T16:56:52;2.50;;;2.00;;
6832;SDS011;3454;42.654;23.378;2022-11-25T17:01:54;4.97;;;2.73;;
6832;SDS011;3454;42.654;23.378;2022-11-25T17:04:20;3.17;;;2.57;;
6832;SDS011;3454;42.654;23.378;2022-11-25T17:06:46;4.13;;;2.70;;
6832;SDS011;3454;42.654;23.378;2022-11-25T17:09:12;7.10;;;2.37;;
6832;SDS011;3454;42.654;23.378;2022-11-25T17:11:39;3.57;;;3.10;;
6832;SDS011;3454;42.654;23.378;2022-11-25T17:14:12;3.37;;;2.17;;
6832;SDS011;3454;42.654;23.378;2022-11-25T17:16:44;3.03;;;2.23;;
6832;SDS011;3454;42.654;23.378;2022-11-25T17:19:14;4.57;;;1.80;;
6832;SDS011;3454;42.654;23.378;2022-11-25T17:21:40;2.97;;;2.13;;
6832;SDS011;3454;42.654;23.378;2022-11-25T17:24:10;4.07;;;1.90;;
6832;SDS011;3454;42.654;23.378;2022-11-25T17:26:39;3.50;;;2.43;;
6832;SDS011;3454;42.654;23.378;2022-11-25T17:29:07;2.83;;;2.10;;
6832;SDS011;3454;42.654;23.378;2022-11-25T17:31:38;2.93;;;2.20;;
6832;SDS011;3454;42.654;23.378;2022-11-25T17:34:05;2.03;;;1.83;;
6832;SDS011;3454;42.654;23.378;2022-11-25T17:36:30;3.60;;;2.20;;
6832;SDS011;3454;42.654;23.378;2022-11-25T17:38:55;2.87;;;2.40;;
6832;SDS011;3454;42.654;23.378;2022-11-25T17:41:21;2.77;;;2.00;;
6832;SDS011;3454;42.654;23.378;2022-11-25T17:43:50;2.97;;;2.37;;
6832;SDS011;3454;42.654;23.378;2022-11-25T17:46:17;3.80;;;2.70;;
6832;SDS011;3454;42.654;23.378;2022-11-25T17:48:43;4.50;;;2.37;;
6832;SDS011;3454;42.654;23.378;2022-11-25T17:51:12;4.63;;;2.83;;